createdAt,value
2022-08-26T00:03:14.113Z,86.85
2022-08-26T00:08:17.943Z,86.94
2022-08-26T00:13:19.920Z,86.54
2022-08-26T00:18:22.761Z,87.60
2022-08-26T00:23:24.802Z,87.79
2022-08-26T00:28:30.546Z,88.04
2022-08-26T00:33:32.242Z,88.38
2022-08-26T00:38:35.554Z,88.28
2022-08-26T00:43:46.229Z,88.24
2022-08-26T00:48:53.989Z,88.01
2022-08-26T00:54:03.828Z,88.51
2022-08-26T00:59:11.806Z,88.32
2022-08-26T01:04:15.890Z,88.77
2022-08-26T01:09:19.303Z,88.75
2022-08-26T01:14:22.486Z,89.00
2022-08-26T01:19:31.089Z,89.20
2022-08-26T01:24:32.903Z,89.19
2022-08-26T01:29:36.122Z,89.39
2022-08-26T01:34:39.991Z,89.35
2022-08-26T01:39:43.129Z,89.67
2022-08-26T01:44:51.431Z,89.31
2022-08-26T01:49:55.806Z,88.89
2022-08-26T01:54:59.469Z,89.15
2022-08-26T02:00:06.002Z,89.72
2022-08-26T02:05:30.769Z,89.01
2022-08-26T02:10:34.149Z,88.85
2022-08-26T02:15:42.886Z,89.30
2022-08-26T02:20:44.942Z,89.08
2022-08-26T02:25:56.017Z,89.36
2022-08-26T02:30:57.707Z,88.98
2022-08-26T02:36:00.812Z,88.30
2022-08-26T02:41:02.605Z,88.54
2022-08-26T02:46:05.917Z,88.84
2022-08-26T02:51:08.060Z,88.77
2022-08-26T02:56:10.430Z,88.12
2022-08-26T03:01:29.982Z,87.31
2022-08-26T03:06:31.794Z,86.30
2022-08-26T03:11:34.357Z,86.80
2022-08-26T03:16:37.386Z,87.04
2022-08-26T03:21:39.538Z,87.76
2022-08-26T03:26:52.361Z,88.94
2022-08-26T03:31:55.375Z,89.16
2022-08-26T03:36:57.081Z,89.71
2022-08-26T03:41:58.899Z,90.03
2022-08-26T03:47:00.706Z,90.58
2022-08-26T03:52:04.448Z,90.45
2022-08-26T03:57:06.162Z,89.92
2022-08-26T04:02:11.361Z,89.62
2022-08-26T04:07:13.546Z,89.88
2022-08-26T04:12:17.093Z,89.68
2022-08-26T04:17:19.593Z,89.98
2022-08-26T04:22:26.729Z,90.04
2022-08-26T04:27:31.182Z,89.95
2022-08-26T04:32:32.916Z,89.73
2022-08-26T04:37:35.693Z,89.97
2022-08-26T04:42:37.426Z,90.35
2022-08-26T04:47:39.123Z,90.08
2022-08-26T04:52:40.797Z,88.59
2022-08-26T04:57:43.082Z,88.04
2022-08-26T05:02:46.115Z,88.50
2022-08-26T05:07:47.876Z,88.13
2022-08-26T05:12:51.583Z,88.33
2022-08-26T05:18:21.286Z,89.28
2022-08-26T05:23:25.242Z,89.18
2022-08-26T05:28:28.930Z,89.04
2022-08-26T05:33:30.574Z,89.52
2022-08-26T05:38:32.220Z,89.78
2022-08-26T05:43:34.316Z,90.25
2022-08-26T05:48:37.893Z,91.12
2022-08-26T05:53:43.875Z,92.05
2022-08-26T05:58:58.368Z,92.49
2022-08-26T06:04:02.027Z,93.39
2022-08-26T06:09:06.358Z,92.90
2022-08-26T06:14:11.673Z,93.89
2022-08-26T06:19:15.525Z,93.68
2022-08-26T06:24:35.705Z,94.42
2022-08-26T06:29:38.449Z,93.90
2022-08-26T06:34:40.314Z,93.32
2022-08-26T06:39:41.970Z,93.24
2022-08-26T06:44:44.585Z,93.70
2022-08-26T06:49:46.538Z,93.24
2022-08-26T06:54:48.444Z,93.47
2022-08-26T06:59:52.757Z,93.80
2022-08-26T07:04:54.582Z,94.96
2022-08-26T07:09:58.722Z,94.91
2022-08-26T07:15:00.551Z,94.06
2022-08-26T07:20:03.416Z,93.25
2022-08-26T07:25:08.630Z,93.19
2022-08-26T07:30:11.005Z,93.06
2022-08-26T07:35:16.980Z,93.01
2022-08-26T07:40:19.098Z,92.97
2022-08-26T07:45:22.130Z,92.59
2022-08-26T07:50:49.100Z,91.84
2022-08-26T07:55:46.625Z,91.75
2022-08-26T08:00:48.689Z,90.79
2022-08-26T08:05:50.640Z,90.04
2022-08-26T08:10:55.850Z,88.89
2022-08-26T08:15:57.561Z,87.94
2022-08-26T08:21:21.378Z,88.23
2022-08-26T08:26:26.081Z,87.40
2022-08-26T08:31:56.953Z,86.15
2022-08-26T08:36:53.453Z,84.82
2022-08-26T08:42:05.932Z,84.07
2022-08-26T08:47:30.938Z,83.27
2022-08-26T08:52:35.539Z,82.84
2022-08-26T08:57:43.749Z,82.54
2022-08-26T09:02:59.920Z,81.32
2022-08-26T09:08:06.631Z,80.94
2022-08-26T09:13:13.716Z,79.53
2022-08-26T09:18:30.601Z,77.98
2022-08-26T09:23:35.932Z,77.92
2022-08-26T09:28:42.518Z,77.23
2022-08-26T09:33:44.407Z,76.13
2022-08-26T09:38:46.152Z,71.87
2022-08-26T09:44:18.422Z,73.02
2022-08-26T09:49:25.393Z,73.01
2022-08-26T09:54:30.425Z,73.01
2022-08-26T09:59:34.132Z,71.35
2022-08-26T10:04:37.194Z,70.47
2022-08-26T10:09:43.067Z,69.77
2022-08-26T10:14:59.730Z,69.93
2022-08-26T10:20:15.813Z,69.02
2022-08-26T10:25:33.244Z,67.86
2022-08-26T10:30:42.961Z,67.44
2022-08-26T10:35:54.907Z,67.44
2022-08-26T10:41:20.661Z,66.58
2022-08-26T10:46:27.367Z,67.09
2022-08-26T10:51:36.341Z,69.31
2022-08-26T10:56:51.005Z,70.18
2022-08-26T11:02:07.433Z,72.73
2022-08-26T11:07:34.118Z,77.87
2022-08-26T11:12:36.090Z,81.16
2022-08-26T11:24:52.383Z,87.12
2022-08-26T11:30:08.242Z,88.72
2022-08-26T11:35:19.235Z,92.18
2022-08-26T11:40:27.808Z,94.96
2022-08-26T11:46:00.135Z,96.21
2022-08-26T11:51:06.601Z,97.25
2022-08-26T11:56:33.158Z,97.94
2022-08-26T12:01:43.854Z,96.98
2022-08-26T12:06:50.785Z,95.64
2022-08-26T12:12:25.021Z,95.08
2022-08-26T12:17:27.928Z,93.28
2022-08-26T12:22:34.594Z,89.59
2022-08-26T12:27:45.442Z,90.00
2022-08-26T12:32:57.593Z,90.50
2022-08-26T12:38:01.423Z,89.01
2022-08-26T12:43:06.433Z,88.36
2022-08-26T12:48:44.479Z,87.21
2022-08-26T12:53:46.477Z,86.71
2022-08-26T12:59:02.624Z,80.27
2022-08-26T13:04:06.554Z,76.35
2022-08-26T13:09:08.477Z,72.77
2022-08-26T13:14:15.538Z,73.13
2022-08-26T13:19:29.515Z,70.63
2022-08-26T13:24:35.938Z,69.97
2022-08-26T13:29:38.246Z,67.89
2022-08-26T13:34:40.495Z,65.88
2022-08-26T13:39:43.809Z,63.61
2022-08-26T13:44:47.801Z,63.08
2022-08-26T13:49:49.504Z,59.27
2022-08-26T13:54:51.811Z,57.77
2022-08-26T13:59:57.093Z,56.35
2022-08-26T14:04:59.183Z,56.07
2022-08-26T14:10:01.586Z,55.87
2022-08-26T14:15:03.737Z,55.42
2022-08-26T14:20:07.907Z,54.14
2022-08-26T14:25:12.158Z,52.14
2022-08-26T14:30:14.691Z,52.28
2022-08-26T14:35:22.900Z,51.52
2022-08-26T14:40:29.812Z,51.23
2022-08-26T14:45:34.757Z,49.21
2022-08-26T14:50:36.535Z,50.08
2022-08-26T14:55:41.108Z,50.75
2022-08-26T15:00:43.404Z,50.33
2022-08-26T15:05:48.154Z,49.09
2022-08-26T15:10:50.734Z,48.41
2022-08-26T15:15:52.545Z,53.93
2022-08-26T15:20:54.498Z,58.54
2022-08-26T15:25:56.535Z,60.51
2022-08-26T15:30:58.267Z,62.04
2022-08-26T15:36:01.827Z,62.27
2022-08-26T15:41:05.074Z,61.85
2022-08-26T15:46:10.886Z,62.85
2022-08-26T15:51:31.817Z,62.97
2022-08-26T15:56:36.234Z,63.36
2022-08-26T16:01:38.661Z,64.31
2022-08-26T16:06:42.402Z,63.39
2022-08-26T16:11:44.126Z,63.09
2022-08-26T16:16:45.769Z,64.44
2022-08-26T16:21:48.042Z,65.11
2022-08-26T16:26:49.747Z,66.05
2022-08-26T16:31:53.270Z,67.07
2022-08-26T16:36:54.991Z,66.81
2022-08-26T16:41:57.137Z,66.92
2022-08-26T16:46:58.961Z,66.89
2022-08-26T16:52:04.481Z,67.65
2022-08-26T16:57:08.469Z,68.47
2022-08-26T17:02:11.795Z,68.95
2022-08-26T17:07:13.627Z,69.83
2022-08-26T17:12:15.494Z,70.94
2022-08-26T17:17:17.335Z,72.93
2022-08-26T17:22:19.703Z,74.88
2022-08-26T17:27:21.537Z,76.30
2022-08-26T17:32:23.583Z,77.08
2022-08-26T17:37:25.848Z,76.97
2022-08-26T17:42:31.533Z,76.33
2022-08-26T17:47:34.375Z,74.92
2022-08-26T17:52:37.058Z,68.68
2022-08-26T17:57:40.680Z,69.45
2022-08-26T18:02:44.702Z,69.20
2022-08-26T18:07:47.155Z,69.00
2022-08-26T18:12:49.001Z,68.92
2022-08-26T18:17:50.817Z,68.35
2022-08-26T18:22:53.995Z,68.83
2022-08-26T18:27:55.683Z,67.93
2022-08-26T18:32:57.898Z,67.76
2022-08-26T18:38:11.301Z,66.98
2022-08-26T18:43:13.623Z,66.59
2022-08-26T18:48:16.664Z,66.15
2022-08-26T18:53:18.332Z,66.37
2022-08-26T18:58:20.176Z,68.29
2022-08-26T19:03:22.068Z,69.77
2022-08-26T19:08:23.857Z,70.34
2022-08-26T19:13:26.166Z,69.85
2022-08-26T19:18:27.961Z,70.21
2022-08-26T19:23:31.905Z,71.42
2022-08-26T19:28:34.558Z,73.07
2022-08-26T19:33:41.866Z,73.13
2022-08-26T19:38:45.009Z,73.72
2022-08-26T19:43:46.937Z,73.38
2022-08-26T19:48:54.064Z,72.59
2022-08-26T19:53:59.699Z,74.97
2022-08-26T19:59:01.678Z,76.48
2022-08-26T20:04:04.149Z,77.45
2022-08-26T20:09:06.007Z,79.53
2022-08-26T20:14:07.818Z,77.88
2022-08-26T20:19:28.283Z,76.41
2022-08-26T20:24:31.451Z,76.06
2022-08-26T20:29:34.783Z,75.17
2022-08-26T20:34:36.937Z,75.09
2022-08-26T20:39:38.706Z,75.38
2022-08-26T20:44:43.217Z,74.95
2022-08-26T20:49:56.978Z,74.71
2022-08-26T20:54:58.660Z,74.79
2022-08-26T21:00:00.961Z,75.06
2022-08-26T21:05:02.854Z,75.08
2022-08-26T21:10:05.002Z,75.31
2022-08-26T21:15:07.425Z,75.19
2022-08-26T21:20:09.566Z,76.18
2022-08-26T21:25:11.658Z,75.77
2022-08-26T21:30:15.541Z,76.18
2022-08-26T21:35:18.402Z,78.57
2022-08-26T21:40:20.175Z,78.86
2022-08-26T21:45:21.926Z,78.85
2022-08-26T21:50:23.842Z,79.01
2022-08-26T21:55:25.831Z,78.22
2022-08-26T22:00:27.909Z,78.05
2022-08-26T22:05:29.997Z,78.40
2022-08-26T22:10:31.793Z,78.80
2022-08-26T22:15:35.437Z,78.92
2022-08-26T22:20:37.186Z,79.00
2022-08-26T22:25:39.013Z,79.62
2022-08-26T22:30:45.582Z,79.54
2022-08-26T22:35:50.548Z,79.38
2022-08-26T22:40:57.464Z,79.08
2022-08-26T22:45:59.449Z,79.61
2022-08-26T22:51:01.208Z,80.47
2022-08-26T22:56:04.056Z,80.44
2022-08-26T23:01:07.089Z,79.86
2022-08-26T23:06:10.347Z,80.53
2022-08-26T23:11:13.773Z,81.27
2022-08-26T23:16:15.579Z,83.17
2022-08-26T23:21:17.591Z,83.82
2022-08-26T23:26:19.860Z,83.88
2022-08-26T23:31:21.610Z,84.37
2022-08-26T23:36:23.652Z,84.92
2022-08-26T23:41:25.867Z,86.34
2022-08-26T23:46:27.723Z,86.44
2022-08-26T23:52:05.036Z,86.42
2022-08-26T23:57:07.305Z,86.71
